LFK weather

Angelina County Airport
Lufkin, Texas, United States

Public forecast

Using degrees Fahrenheit for public forecast. Weather courtesy of forecast.io.

METAR (pilot weather report)

Retrieved 2019/09/17 08:53 UTC (23 minutes ago):

KLFK 170853Z AUTO 07003KT 10SM CLR 23/22 A2995 RMK AO2 SLP137 T02330217 57006

TAF (pilot weather forecast)

Retrieved 2019/09/17 06:28 UTC (3 hours ago):

TAF KLFK 170525Z 1706/1806 VRB03KT P6SM BKN120 TEMPO 1711/1715 BKN015 FM171500 10007KT P6SM FEW035 BKN045 FM171800 12010KT P6SM VCTS BKN040CB OVC100 FM180200 12005KT P6SM SCT100 BKN250